バルセロナ・エル・プラット国際空港の過去48時間の天気

バルセロナ・エル・プラット国際空港 (Barcelona / Aeropuerto)

現在時刻: 7/2 14:48 CEST (7/2 12:48 UTC) 以下の時間は現地時間です。

過去48時間のMETAR気象情報
時間 風向 風速(m/s) 視程 気温(℃) 湿度(%) 気圧(hPa) 天気現象
2 14:30 南南西 7 10km以上 28 70 1014
2 14:00 南南西 7 10km以上 28 70 1014
2 13:30 南西 6 10km以上 28 66 1014
2 13:00 南南西 6 10km以上 27 74 1014
2 12:30 南南西 6 10km以上 28 70 1014
2 12:00 南南西 5 10km以上 27 74 1014
2 11:30 南南西 4 10km以上 27 70 1014
2 11:00 5 10km以上 27 74 1014
2 10:30 4 10km以上 26 74 1014
2 10:00 南南東 3 10km以上 27 74 1014
2 09:30 西 1 10km以上 26 74 1014
2 09:00 南南西 2 10km以上 25 83 1014
2 08:30 南南西 1 10km以上 25 83 1013
2 08:00 不定 1 10km以上 24 83 1013
2 07:30 不定 1 10km以上 23 89 1013
2 07:00 西北西 2 10km以上 24 83 1013
2 06:30 北西 2 10km以上 23 89 1013
2 06:00 2 10km以上 23 89 1013
2 05:30 北北東 3 10km以上 23 89 1012
2 05:00 北北東 3 10km以上 24 83 1013
2 04:30 北北東 2 10km以上 24 89 1013
2 04:00 北東 2 10km以上 24 89 1012
2 03:30 2 10km以上 25 83 1013
2 03:00 東北東 2 10km以上 25 83 1013
2 02:30 北東 1 10km以上 25 83 1013
2 02:00 北東 2 10km以上 25 83 1013
2 01:30 2 10km以上 25 83 1013
2 01:00 2 10km以上 25 89 1013
2 00:30 2 10km以上 25 83 1013
2 00:00 3 10km以上 25 83 1013
1 23:30 東北東 4 10km以上 26 79 1013
1 23:00 東北東 3 10km以上 26 79 1012
1 22:30 2 10km以上 26 84 1012
1 22:00 2 10km以上 26 79 1011
1 21:30 東南東 2 10km以上 26 84 1011
1 21:00 2 10km以上 26 84 1011
1 20:30 3 10km以上 26 84 1010
1 20:00 3 10km以上 27 74 1011
1 19:30 3 10km以上 27 74 1010
1 19:00 4 10km以上 28 70 1010
1 18:30 南南東 4 10km以上 27 74 1010
1 18:00 南東 4 10km以上 28 70 1010
1 17:30 南東 4 10km以上 28 66 1010
1 17:00 東南東 4 10km以上 29 62 1010
1 16:30 東南東 4 10km以上 29 58 1011
1 16:00 東南東 4 10km以上 28 62 1011
1 15:30 東南東 4 10km以上 29 58 1011
1 15:00 東南東 4 10km以上 29 52 1011
1 14:30 東南東 4 10km以上 29 58 1011
1 14:00 東南東 3 10km以上 29 62 1011
1 13:30 東南東 4 10km以上 29 58 1011
1 13:00 南東 4 10km以上 28 62 1011
1 12:30 南東 3 10km以上 29 58 1011
1 12:00 東南東 3 10km以上 29 55 1011
1 11:30 東南東 3 10km以上 29 62 1011
1 11:00 東南東 4 10km以上 28 66 1011
1 10:30 不定 1 10km以上 29 55 1011
1 10:00 2 10km以上 28 58 1011
1 09:30 北北西 3 10km以上 26 65 1011
1 09:00 北西 3 10km以上 25 74 1011
1 08:30 北北西 3 10km以上 24 74 1011
1 08:00 北北西 3 10km以上 23 78 1011
1 07:30 北北西 3 10km以上 22 88 1011
1 07:00 北北西 3 10km以上 22 88 1011
1 06:30 北西 3 10km以上 22 88 1011
1 06:00 北西 3 10km以上 22 88 1011
1 05:30 北西 3 10km以上 22 88 1011
1 05:00 北西 2 10km以上 22 88 1011
1 04:30 西北西 1 10km以上 22 88 1011
1 04:00 西北西 2 10km以上 22 88 1011
1 03:30 西北西 1 10km以上 23 89 1012
1 03:00 静穏 0 10km以上 24 83 1012
1 02:30 静穏 0 10km以上 24 83 1012
1 02:00 不定 1 10km以上 23 89 1013
1 01:30 北西 2 10km以上 24 83 1014
1 01:00 不定 1 10km以上 24 83 1013
1 00:30 静穏 0 10km以上 25 83 1013
1 00:00 不定 1 10km以上 25 83 1013
30 23:30 不定 1 10km以上 25 83 1013
30 23:00 不定 1 10km以上 25 83 1013
30 22:30 南東 1 10km以上 25 83 1013
30 22:00 不定 1 10km以上 25 83 1013
LEBL 021230Z 20014KT 9999 FEW020 28/22 Q1014 NOSIG
LEBL 021200Z 20013KT 9999 FEW035 28/22 Q1014 NOSIG
LEBL 021130Z 22012KT 180V240 9999 FEW030 28/21 Q1014 NOSIG
LEBL 021100Z 21011KT 170V240 9999 FEW030 27/22 Q1014 NOSIG
LEBL 021030Z 20012KT 170V230 9999 FEW030 28/22 Q1014 NOSIG
LEBL 021000Z 21010KT 9999 FEW030 27/22 Q1014 NOSIG
LEBL 020930Z 20008KT 160V220 9999 FEW015 27/21 Q1014 NOSIG
LEBL 020900Z 19009KT 170V230 9999 FEW015 27/22 Q1014 NOSIG
LEBL 020830Z 19008KT 160V220 9999 FEW015 26/21 Q1014 NOSIG
LEBL 020800Z 15005KT 110V190 9999 FEW015 27/22 Q1014 NOSIG
LEBL 020730Z 28002KT 9999 SCT015 26/21 Q1014 NOSIG
LEBL 020700Z 20003KT 140V250 9999 FEW015 25/22 Q1014 NOSIG
LEBL 020630Z 21001KT 9999 FEW013 25/22 Q1013 NOSIG
LEBL 020600Z VRB01KT 9999 FEW015 24/21 Q1013 NOSIG
LEBL 020530Z VRB02KT 9999 FEW015 23/21 Q1013 NOSIG
LEBL 020500Z 30003KT 9999 FEW015 24/21 Q1013 NOSIG
LEBL 020430Z 31003KT 9999 FEW015 23/21 Q1013 NOSIG
LEBL 020400Z 01003KT 300V030 9999 FEW013 23/21 Q1013 NOSIG
LEBL 020330Z 03006KT 9999 FEW013 23/21 Q1012 NOSIG
LEBL 020300Z 03006KT 9999 FEW013 24/21 Q1013 NOSIG
LEBL 020230Z 03004KT 9999 FEW011 24/22 Q1013 NOSIG
LEBL 020200Z 05004KT 9999 FEW011 24/22 Q1012 NOSIG
LEBL 020130Z 08004KT 9999 FEW011 25/22 Q1013 NOSIG
LEBL 020100Z 07003KT 9999 FEW013 25/22 Q1013 NOSIG
LEBL 020030Z 05002KT 9999 FEW013 25/22 Q1013 NOSIG
LEBL 020000Z 04004KT 010V070 9999 FEW013 25/22 Q1013 NOSIG
LEBL 012330Z 09003KT 070V130 9999 FEW013 25/22 Q1013 NOSIG
LEBL 012300Z 09004KT 060V120 9999 FEW013 25/23 Q1013 NOSIG
LEBL 012230Z 09004KT 9999 SCT013 25/22 Q1013 NOSIG
LEBL 012200Z 08005KT 9999 FEW013 25/22 Q1013 NOSIG
LEBL 012130Z 06007KT 9999 SCT013 26/22 Q1013 NOSIG
LEBL 012100Z 07006KT 9999 FEW013 26/22 Q1012 NOSIG
LEBL 012030Z 08004KT 060V120 9999 SCT013 26/23 Q1012 NOSIG
LEBL 012000Z 10003KT 9999 FEW013 26/22 Q1011 NOSIG
LEBL 011930Z 12003KT 100V160 9999 FEW013 26/23 Q1011 NOSIG
LEBL 011900Z 18004KT 140V220 9999 FEW013 26/23 Q1011 NOSIG
LEBL 011830Z 19006KT 150V220 9999 FEW020 26/23 Q1010 NOSIG
LEBL 011800Z 19006KT 140V220 9999 FEW020 27/22 Q1011 NOSIG
LEBL 011730Z 17006KT 130V210 CAVOK 27/22 Q1010 NOSIG
LEBL 011700Z 17007KT 120V210 CAVOK 28/22 Q1010 NOSIG
LEBL 011630Z 15007KT 120V220 CAVOK 27/22 Q1010 NOSIG
LEBL 011600Z 14007KT 110V170 9999 FEW025 28/22 Q1010 NOSIG
LEBL 011530Z 13007KT 100V170 9999 FEW025 28/21 Q1010 NOSIG
LEBL 011500Z 12007KT 100V160 9999 FEW025 29/21 Q1010 NOSIG
LEBL 011430Z 12007KT CAVOK 29/20 Q1011 NOSIG
LEBL 011400Z 12007KT 090V150 CAVOK 28/20 Q1011 NOSIG
LEBL 011330Z 12007KT 100V160 CAVOK 29/20 Q1011 NOSIG
LEBL 011300Z 11007KT 080V150 CAVOK 29/18 Q1011 NOSIG
LEBL 011230Z 12007KT 090V150 CAVOK 29/20 Q1011 NOSIG
LEBL 011200Z 12006KT 080V150 CAVOK 29/21 Q1011 NOSIG
LEBL 011130Z 12007KT CAVOK 29/20 Q1011 NOSIG
LEBL 011100Z 14007KT 110V170 CAVOK 28/20 Q1011 NOSIG
LEBL 011030Z 13006KT 100V170 CAVOK 29/20 Q1011 NOSIG
LEBL 011000Z 11005KT 080V160 CAVOK 29/19 Q1011 NOSIG
LEBL 010930Z 11006KT 080V150 9999 FEW025 29/21 Q1011 NOSIG
LEBL 010900Z 12007KT 9999 FEW025 28/21 Q1011 NOSIG
LEBL 010830Z VRB02KT 9999 FEW025 29/19 Q1011 NOSIG
LEBL 010800Z 35004KT 9999 FEW025 28/19 Q1011 NOSIG
LEBL 010730Z 33006KT 270V010 9999 FEW025 26/19 Q1011 NOSIG
LEBL 010700Z 32006KT CAVOK 25/20 Q1011 NOSIG
LEBL 010630Z 33005KT 270V010 CAVOK 24/19 Q1011 NOSIG
LEBL 010600Z 33006KT CAVOK 23/19 Q1011 NOSIG
LEBL 010530Z 33006KT CAVOK 22/20 Q1011 NOSIG
LEBL 010500Z 33006KT CAVOK 22/20 Q1011 NOSIG
LEBL 010430Z 32006KT CAVOK 22/20 Q1011 NOSIG
LEBL 010400Z 32005KT CAVOK 22/20 Q1011 NOSIG
LEBL 010330Z 32005KT 9999 FEW015 22/20 Q1011 NOSIG
LEBL 010300Z 32004KT 9999 FEW015 22/20 Q1011 NOSIG
LEBL 010230Z 29002KT 9999 FEW015 22/20 Q1011 NOSIG
LEBL 010200Z 30004KT 9999 FEW015 22/20 Q1011 NOSIG
LEBL 010130Z 29001KT 9999 FEW015 23/21 Q1012 NOSIG
LEBL 010100Z 00000KT 9999 FEW015 24/21 Q1012 NOSIG
LEBL 010030Z 00000KT 9999 FEW015 24/21 Q1012 NOSIG
LEBL 010000Z VRB01KT 9999 FEW015 23/21 Q1013 NOSIG
LEBL 302330Z 31004KT 9999 SCT015 24/21 Q1014 NOSIG
LEBL 302300Z VRB01KT 9999 SCT015 24/21 Q1013 NOSIG
LEBL 302230Z 00000KT 9999 SCT015 25/22 Q1013 NOSIG
LEBL 302200Z VRB01KT 9999 SCT015 25/22 Q1013 NOSIG
LEBL 302130Z VRB01KT 9999 SCT012 25/22 Q1013 NOSIG
LEBL 302100Z VRB01KT 9999 FEW010 25/22 Q1013 NOSIG
LEBL 302030Z 13002KT 9999 FEW010 25/22 Q1013 NOSIG
LEBL 302000Z VRB01KT 9999 FEW012 25/22 Q1013 NOSIG